sensor_id;sensor_type;location;lat;lon;timestamp;P1;durP1;ratioP1;P2;durP2;ratioP2
11823;SDS011;5969;50.780;7.726;2023-03-30T00:01:10;2.40;;;1.90;;
11823;SDS011;5969;50.780;7.726;2023-03-30T00:03:41;3.30;;;1.73;;
11823;SDS011;5969;50.780;7.726;2023-03-30T00:06:10;3.40;;;1.92;;
11823;SDS011;5969;50.780;7.726;2023-03-30T00:08:47;4.47;;;2.00;;
11823;SDS011;5969;50.780;7.726;2023-03-30T00:11:14;4.50;;;2.05;;
11823;SDS011;5969;50.780;7.726;2023-03-30T00:13:42;6.50;;;2.38;;
11823;SDS011;5969;50.780;7.726;2023-03-30T00:16:10;3.15;;;1.75;;
11823;SDS011;5969;50.780;7.726;2023-03-30T00:18:39;6.05;;;1.83;;
11823;SDS011;5969;50.780;7.726;2023-03-30T00:21:07;7.18;;;1.83;;
11823;SDS011;5969;50.780;7.726;2023-03-30T00:23:36;4.22;;;1.73;;
11823;SDS011;5969;50.780;7.726;2023-03-30T00:26:04;3.88;;;1.75;;
11823;SDS011;5969;50.780;7.726;2023-03-30T00:28:32;6.10;;;2.05;;
11823;SDS011;5969;50.780;7.726;2023-03-30T00:31:00;3.35;;;1.83;;
11823;SDS011;5969;50.780;7.726;2023-03-30T00:33:27;6.82;;;2.10;;
11823;SDS011;5969;50.780;7.726;2023-03-30T00:35:55;5.90;;;1.90;;
11823;SDS011;5969;50.780;7.726;2023-03-30T00:38:24;5.65;;;1.92;;
11823;SDS011;5969;50.780;7.726;2023-03-30T00:40:53;3.60;;;2.03;;
11823;SDS011;5969;50.780;7.726;2023-03-30T00:43:23;4.93;;;2.03;;
11823;SDS011;5969;50.780;7.726;2023-03-30T00:45:54;4.82;;;2.20;;
11823;SDS011;5969;50.780;7.726;2023-03-30T00:48:22;6.63;;;1.98;;
11823;SDS011;5969;50.780;7.726;2023-03-30T00:50:54;4.22;;;2.20;;
11823;SDS011;5969;50.780;7.726;2023-03-30T00:53:24;6.45;;;2.03;;
11823;SDS011;5969;50.780;7.726;2023-03-30T00:55:56;4.40;;;2.33;;
11823;SDS011;5969;50.780;7.726;2023-03-30T00:58:25;3.47;;;1.92;;
11823;SDS011;5969;50.780;7.726;2023-03-30T01:00:54;4.57;;;2.45;;
11823;SDS011;5969;50.780;7.726;2023-03-30T01:03:29;7.03;;;2.10;;
11823;SDS011;5969;50.780;7.726;2023-03-30T01:05:58;3.40;;;1.73;;
11823;SDS011;5969;50.780;7.726;2023-03-30T01:08:27;4.57;;;2.10;;
11823;SDS011;5969;50.780;7.726;2023-03-30T01:10:58;4.50;;;1.88;;
11823;SDS011;5969;50.780;7.726;2023-03-30T01:13:25;4.85;;;2.17;;
11823;SDS011;5969;50.780;7.726;2023-03-30T01:16:00;2.92;;;1.95;;
11823;SDS011;5969;50.780;7.726;2023-03-30T01:18:37;3.40;;;1.83;;
11823;SDS011;5969;50.780;7.726;2023-03-30T01:24:38;3.33;;;1.88;;
11823;SDS011;5969;50.780;7.726;2023-03-30T01:30:50;5.72;;;2.15;;
11823;SDS011;5969;50.780;7.726;2023-03-30T01:33:43;7.13;;;1.90;;
11823;SDS011;5969;50.780;7.726;2023-03-30T01:39:32;7.93;;;2.05;;
11823;SDS011;5969;50.780;7.726;2023-03-30T01:42:05;8.50;;;2.17;;
11823;SDS011;5969;50.780;7.726;2023-03-30T01:44:42;4.03;;;2.33;;
11823;SDS011;5969;50.780;7.726;2023-03-30T01:47:16;2.30;;;1.70;;
11823;SDS011;5969;50.780;7.726;2023-03-30T01:49:49;9.73;;;2.20;;
11823;SDS011;5969;50.780;7.726;2023-03-30T01:52:24;2.60;;;1.70;;
11823;SDS011;5969;50.780;7.726;2023-03-30T01:54:56;6.38;;;2.22;;
11823;SDS011;5969;50.780;7.726;2023-03-30T01:57:29;6.13;;;2.30;;
11823;SDS011;5969;50.780;7.726;2023-03-30T01:59:59;3.88;;;2.03;;
11823;SDS011;5969;50.780;7.726;2023-03-30T02:02:38;5.18;;;1.83;;
11823;SDS011;5969;50.780;7.726;2023-03-30T02:05:08;5.85;;;1.70;;
11823;SDS011;5969;50.780;7.726;2023-03-30T02:07:42;9.10;;;2.25;;
11823;SDS011;5969;50.780;7.726;2023-03-30T02:10:12;5.70;;;2.00;;
11823;SDS011;5969;50.780;7.726;2023-03-30T02:12:41;4.60;;;2.05;;
11823;SDS011;5969;50.780;7.726;2023-03-30T02:15:10;5.80;;;2.67;;
11823;SDS011;5969;50.780;7.726;2023-03-30T02:17:40;5.65;;;1.77;;
11823;SDS011;5969;50.780;7.726;2023-03-30T02:20:10;6.35;;;2.08;;
11823;SDS011;5969;50.780;7.726;2023-03-30T02:22:37;5.40;;;2.00;;
11823;SDS011;5969;50.780;7.726;2023-03-30T02:25:06;6.50;;;2.13;;
11823;SDS011;5969;50.780;7.726;2023-03-30T02:27:36;4.75;;;2.20;;
11823;SDS011;5969;50.780;7.726;2023-03-30T02:30:06;5.43;;;2.00;;
11823;SDS011;5969;50.780;7.726;2023-03-30T02:32:38;7.43;;;2.22;;
11823;SDS011;5969;50.780;7.726;2023-03-30T02:40:51;5.78;;;2.17;;
11823;SDS011;5969;50.780;7.726;2023-03-30T02:43:35;5.60;;;2.40;;
11823;SDS011;5969;50.780;7.726;2023-03-30T02:46:14;7.60;;;2.00;;
11823;SDS011;5969;50.780;7.726;2023-03-30T02:49:00;7.05;;;2.35;;
11823;SDS011;5969;50.780;7.726;2023-03-30T02:51:40;8.68;;;3.17;;
11823;SDS011;5969;50.780;7.726;2023-03-30T02:54:18;8.73;;;2.50;;
11823;SDS011;5969;50.780;7.726;2023-03-30T02:56:53;8.82;;;2.13;;
11823;SDS011;5969;50.780;7.726;2023-03-30T02:59:31;5.22;;;2.40;;
11823;SDS011;5969;50.780;7.726;2023-03-30T03:02:03;6.90;;;2.15;;
11823;SDS011;5969;50.780;7.726;2023-03-30T03:04:35;4.25;;;2.40;;
11823;SDS011;5969;50.780;7.726;2023-03-30T03:07:07;6.20;;;1.95;;
11823;SDS011;5969;50.780;7.726;2023-03-30T03:09:38;7.35;;;2.53;;
11823;SDS011;5969;50.780;7.726;2023-03-30T03:12:10;7.45;;;2.03;;
11823;SDS011;5969;50.780;7.726;2023-03-30T03:14:41;6.57;;;2.25;;
11823;SDS011;5969;50.780;7.726;2023-03-30T03:17:09;3.55;;;2.30;;
11823;SDS011;5969;50.780;7.726;2023-03-30T03:19:44;4.97;;;2.28;;
11823;SDS011;5969;50.780;7.726;2023-03-30T03:22:12;6.13;;;2.17;;
11823;SDS011;5969;50.780;7.726;2023-03-30T03:24:40;4.68;;;2.20;;
11823;SDS011;5969;50.780;7.726;2023-03-30T03:27:08;6.30;;;2.70;;
11823;SDS011;5969;50.780;7.726;2023-03-30T03:29:36;8.95;;;2.75;;
11823;SDS011;5969;50.780;7.726;2023-03-30T03:32:06;8.98;;;2.60;;
11823;SDS011;5969;50.780;7.726;2023-03-30T03:34:33;4.90;;;1.90;;
11823;SDS011;5969;50.780;7.726;2023-03-30T03:37:01;6.72;;;2.35;;
11823;SDS011;5969;50.780;7.726;2023-03-30T03:42:07;4.95;;;2.10;;
11823;SDS011;5969;50.780;7.726;2023-03-30T03:44:35;7.80;;;2.60;;
11823;SDS011;5969;50.780;7.726;2023-03-30T03:47:18;6.30;;;2.25;;
11823;SDS011;5969;50.780;7.726;2023-03-30T03:49:47;6.80;;;2.15;;
11823;SDS011;5969;50.780;7.726;2023-03-30T03:52:15;6.03;;;2.47;;
11823;SDS011;5969;50.780;7.726;2023-03-30T03:54:43;6.68;;;2.20;;
11823;SDS011;5969;50.780;7.726;2023-03-30T03:57:10;5.45;;;2.20;;
11823;SDS011;5969;50.780;7.726;2023-03-30T03:59:37;3.15;;;2.00;;
11823;SDS011;5969;50.780;7.726;2023-03-30T04:02:08;5.97;;;2.33;;
11823;SDS011;5969;50.780;7.726;2023-03-30T04:04:40;3.83;;;2.30;;
11823;SDS011;5969;50.780;7.726;2023-03-30T04:07:08;9.48;;;2.67;;
11823;SDS011;5969;50.780;7.726;2023-03-30T04:09:35;4.20;;;2.40;;
11823;SDS011;5969;50.780;7.726;2023-03-30T04:12:02;5.63;;;2.00;;
11823;SDS011;5969;50.780;7.726;2023-03-30T04:14:29;5.47;;;2.35;;
11823;SDS011;5969;50.780;7.726;2023-03-30T04:17:03;6.13;;;2.10;;
11823;SDS011;5969;50.780;7.726;2023-03-30T04:19:31;6.72;;;2.40;;
11823;SDS011;5969;50.780;7.726;2023-03-30T04:22:02;4.78;;;2.13;;
11823;SDS011;5969;50.780;7.726;2023-03-30T04:24:30;5.82;;;2.17;;
11823;SDS011;5969;50.780;7.726;2023-03-30T04:27:00;6.32;;;2.42;;
11823;SDS011;5969;50.780;7.726;2023-03-30T04:29:27;4.68;;;2.70;;
11823;SDS011;5969;50.780;7.726;2023-03-30T04:31:54;7.00;;;2.35;;
11823;SDS011;5969;50.780;7.726;2023-03-30T04:34:26;5.88;;;2.60;;
11823;SDS011;5969;50.780;7.726;2023-03-30T04:36:55;8.38;;;2.35;;
11823;SDS011;5969;50.780;7.726;2023-03-30T04:39:23;4.07;;;2.40;;
11823;SDS011;5969;50.780;7.726;2023-03-30T04:41:54;6.53;;;2.47;;
11823;SDS011;5969;50.780;7.726;2023-03-30T04:44:26;6.28;;;2.20;;
11823;SDS011;5969;50.780;7.726;2023-03-30T04:46:53;7.43;;;2.47;;
11823;SDS011;5969;50.780;7.726;2023-03-30T04:49:20;3.70;;;2.20;;
11823;SDS011;5969;50.780;7.726;2023-03-30T04:51:47;7.35;;;2.20;;
11823;SDS011;5969;50.780;7.726;2023-03-30T04:54:14;5.75;;;2.55;;
11823;SDS011;5969;50.780;7.726;2023-03-30T04:56:42;5.13;;;2.70;;
11823;SDS011;5969;50.780;7.726;2023-03-30T04:59:09;6.63;;;2.58;;
11823;SDS011;5969;50.780;7.726;2023-03-30T05:01:36;7.72;;;2.47;;
11823;SDS011;5969;50.780;7.726;2023-03-30T05:04:03;6.68;;;2.35;;
11823;SDS011;5969;50.780;7.726;2023-03-30T05:06:30;5.63;;;2.58;;
11823;SDS011;5969;50.780;7.726;2023-03-30T05:08:57;7.50;;;2.50;;
11823;SDS011;5969;50.780;7.726;2023-03-30T05:11:25;10.52;;;2.55;;
11823;SDS011;5969;50.780;7.726;2023-03-30T05:13:53;7.30;;;2.45;;
11823;SDS011;5969;50.780;7.726;2023-03-30T05:20:13;4.07;;;2.45;;
11823;SDS011;5969;50.780;7.726;2023-03-30T05:22:59;5.30;;;2.67;;
11823;SDS011;5969;50.780;7.726;2023-03-30T05:25:26;5.43;;;2.67;;
11823;SDS011;5969;50.780;7.726;2023-03-30T05:27:52;7.93;;;3.20;;
11823;SDS011;5969;50.780;7.726;2023-03-30T05:30:21;4.95;;;2.40;;
11823;SDS011;5969;50.780;7.726;2023-03-30T05:32:48;5.13;;;2.60;;
11823;SDS011;5969;50.780;7.726;2023-03-30T05:35:15;6.65;;;2.83;;
11823;SDS011;5969;50.780;7.726;2023-03-30T05:37:42;4.53;;;2.45;;
11823;SDS011;5969;50.780;7.726;2023-03-30T05:40:09;4.57;;;2.45;;
11823;SDS011;5969;50.780;7.726;2023-03-30T05:42:36;6.20;;;2.58;;
11823;SDS011;5969;50.780;7.726;2023-03-30T05:45:03;7.32;;;2.60;;
11823;SDS011;5969;50.780;7.726;2023-03-30T05:47:33;7.63;;;2.45;;
11823;SDS011;5969;50.780;7.726;2023-03-30T05:50:00;10.20;;;2.75;;
11823;SDS011;5969;50.780;7.726;2023-03-30T05:52:27;5.75;;;2.30;;
11823;SDS011;5969;50.780;7.726;2023-03-30T05:54:54;8.20;;;2.40;;
11823;SDS011;5969;50.780;7.726;2023-03-30T05:57:21;5.40;;;2.60;;
11823;SDS011;5969;50.780;7.726;2023-03-30T05:59:48;6.68;;;2.80;;
11823;SDS011;5969;50.780;7.726;2023-03-30T06:02:15;6.18;;;2.33;;
11823;SDS011;5969;50.780;7.726;2023-03-30T06:04:45;9.63;;;3.00;;
11823;SDS011;5969;50.780;7.726;2023-03-30T06:07:11;6.32;;;2.67;;
11823;SDS011;5969;50.780;7.726;2023-03-30T06:09:38;7.07;;;2.72;;
11823;SDS011;5969;50.780;7.726;2023-03-30T06:12:06;6.55;;;2.47;;
11823;SDS011;5969;50.780;7.726;2023-03-30T06:14:33;8.10;;;2.83;;
11823;SDS011;5969;50.780;7.726;2023-03-30T06:17:00;4.55;;;2.60;;
11823;SDS011;5969;50.780;7.726;2023-03-30T06:19:27;6.30;;;2.47;;
11823;SDS011;5969;50.780;7.726;2023-03-30T06:21:55;8.15;;;2.53;;
11823;SDS011;5969;50.780;7.726;2023-03-30T06:24:22;5.20;;;2.35;;
11823;SDS011;5969;50.780;7.726;2023-03-30T06:26:49;6.38;;;2.75;;
11823;SDS011;5969;50.780;7.726;2023-03-30T06:29:16;13.85;;;2.72;;
11823;SDS011;5969;50.780;7.726;2023-03-30T06:31:43;9.23;;;2.53;;
11823;SDS011;5969;50.780;7.726;2023-03-30T06:34:10;9.98;;;2.65;;
11823;SDS011;5969;50.780;7.726;2023-03-30T06:36:37;7.28;;;2.40;;
11823;SDS011;5969;50.780;7.726;2023-03-30T06:39:05;9.45;;;2.63;;
11823;SDS011;5969;50.780;7.726;2023-03-30T06:41:34;6.82;;;2.67;;
11823;SDS011;5969;50.780;7.726;2023-03-30T06:44:01;7.05;;;2.50;;
11823;SDS011;5969;50.780;7.726;2023-03-30T06:46:28;11.15;;;3.30;;
11823;SDS011;5969;50.780;7.726;2023-03-30T06:48:54;9.68;;;2.83;;
11823;SDS011;5969;50.780;7.726;2023-03-30T06:51:21;6.88;;;2.65;;
11823;SDS011;5969;50.780;7.726;2023-03-30T06:53:48;7.05;;;2.30;;
11823;SDS011;5969;50.780;7.726;2023-03-30T06:56:16;5.15;;;2.60;;
11823;SDS011;5969;50.780;7.726;2023-03-30T06:58:43;8.85;;;2.50;;
11823;SDS011;5969;50.780;7.726;2023-03-30T07:01:11;9.55;;;2.78;;
11823;SDS011;5969;50.780;7.726;2023-03-30T07:03:39;6.93;;;2.63;;
11823;SDS011;5969;50.780;7.726;2023-03-30T07:06:06;7.05;;;2.47;;
11823;SDS011;5969;50.780;7.726;2023-03-30T07:08:35;8.48;;;3.00;;
11823;SDS011;5969;50.780;7.726;2023-03-30T07:11:02;6.47;;;2.70;;
11823;SDS011;5969;50.780;7.726;2023-03-30T07:13:32;7.13;;;2.63;;
11823;SDS011;5969;50.780;7.726;2023-03-30T07:15:59;7.15;;;2.95;;
11823;SDS011;5969;50.780;7.726;2023-03-30T07:18:26;9.20;;;2.88;;
11823;SDS011;5969;50.780;7.726;2023-03-30T07:20:52;6.75;;;2.42;;
11823;SDS011;5969;50.780;7.726;2023-03-30T07:23:22;8.38;;;2.50;;
11823;SDS011;5969;50.780;7.726;2023-03-30T07:25:48;7.75;;;3.20;;
11823;SDS011;5969;50.780;7.726;2023-03-30T07:28:15;7.85;;;2.63;;
11823;SDS011;5969;50.780;7.726;2023-03-30T07:30:43;9.00;;;2.63;;
11823;SDS011;5969;50.780;7.726;2023-03-30T07:33:10;6.93;;;2.38;;
11823;SDS011;5969;50.780;7.726;2023-03-30T07:35:41;5.88;;;2.30;;
11823;SDS011;5969;50.780;7.726;2023-03-30T07:38:08;10.93;;;3.10;;
11823;SDS011;5969;50.780;7.726;2023-03-30T07:40:36;9.13;;;2.83;;
11823;SDS011;5969;50.780;7.726;2023-03-30T07:43:02;7.43;;;2.83;;
11823;SDS011;5969;50.780;7.726;2023-03-30T07:45:29;7.80;;;2.42;;
11823;SDS011;5969;50.780;7.726;2023-03-30T07:47:57;10.73;;;3.03;;
11823;SDS011;5969;50.780;7.726;2023-03-30T07:50:24;8.68;;;2.47;;
11823;SDS011;5969;50.780;7.726;2023-03-30T07:52:52;3.45;;;1.95;;
11823;SDS011;5969;50.780;7.726;2023-03-30T07:55:18;5.30;;;2.53;;
11823;SDS011;5969;50.780;7.726;2023-03-30T07:57:45;8.55;;;2.38;;
11823;SDS011;5969;50.780;7.726;2023-03-30T08:00:12;6.35;;;2.10;;
11823;SDS011;5969;50.780;7.726;2023-03-30T08:02:40;5.50;;;2.50;;
11823;SDS011;5969;50.780;7.726;2023-03-30T08:05:10;8.13;;;2.35;;
11823;SDS011;5969;50.780;7.726;2023-03-30T08:07:36;7.88;;;2.38;;
11823;SDS011;5969;50.780;7.726;2023-03-30T08:10:03;5.00;;;2.40;;
11823;SDS011;5969;50.780;7.726;2023-03-30T08:12:32;5.57;;;2.47;;
11823;SDS011;5969;50.780;7.726;2023-03-30T08:14:59;6.32;;;2.30;;
11823;SDS011;5969;50.780;7.726;2023-03-30T08:17:26;6.30;;;2.30;;
11823;SDS011;5969;50.780;7.726;2023-03-30T08:19:53;3.15;;;2.05;;
11823;SDS011;5969;50.780;7.726;2023-03-30T08:22:22;4.82;;;2.33;;
11823;SDS011;5969;50.780;7.726;2023-03-30T08:24:49;7.43;;;2.08;;
11823;SDS011;5969;50.780;7.726;2023-03-30T08:27:15;7.38;;;2.10;;
11823;SDS011;5969;50.780;7.726;2023-03-30T08:29:43;6.95;;;2.50;;
11823;SDS011;5969;50.780;7.726;2023-03-30T08:32:09;6.00;;;2.30;;
11823;SDS011;5969;50.780;7.726;2023-03-30T08:34:36;4.93;;;2.03;;
11823;SDS011;5969;50.780;7.726;2023-03-30T08:37:04;5.03;;;2.28;;
11823;SDS011;5969;50.780;7.726;2023-03-30T08:39:33;6.63;;;2.00;;
11823;SDS011;5969;50.780;7.726;2023-03-30T08:42:03;5.32;;;2.00;;
11823;SDS011;5969;50.780;7.726;2023-03-30T08:44:37;4.45;;;2.15;;
11823;SDS011;5969;50.780;7.726;2023-03-30T08:47:08;4.82;;;2.35;;
11823;SDS011;5969;50.780;7.726;2023-03-30T08:49:39;4.22;;;2.00;;
11823;SDS011;5969;50.780;7.726;2023-03-30T08:52:10;5.30;;;1.77;;
11823;SDS011;5969;50.780;7.726;2023-03-30T08:54:52;4.38;;;2.10;;
11823;SDS011;5969;50.780;7.726;2023-03-30T08:57:23;5.47;;;1.98;;
11823;SDS011;5969;50.780;7.726;2023-03-30T09:00:03;4.28;;;1.90;;
11823;SDS011;5969;50.780;7.726;2023-03-30T09:02:40;6.55;;;1.92;;
11823;SDS011;5969;50.780;7.726;2023-03-30T09:05:13;6.55;;;2.03;;
11823;SDS011;5969;50.780;7.726;2023-03-30T09:07:48;3.63;;;2.00;;
11823;SDS011;5969;50.780;7.726;2023-03-30T09:10:21;3.10;;;1.67;;
11823;SDS011;5969;50.780;7.726;2023-03-30T09:12:50;3.70;;;1.70;;
11823;SDS011;5969;50.780;7.726;2023-03-30T09:15:21;4.10;;;1.77;;
11823;SDS011;5969;50.780;7.726;2023-03-30T09:17:55;4.38;;;1.70;;
11823;SDS011;5969;50.780;7.726;2023-03-30T09:20:27;5.32;;;1.75;;
11823;SDS011;5969;50.780;7.726;2023-03-30T09:22:57;4.57;;;1.98;;
11823;SDS011;5969;50.780;7.726;2023-03-30T09:25:29;3.00;;;1.52;;
11823;SDS011;5969;50.780;7.726;2023-03-30T09:28:02;7.45;;;1.80;;
11823;SDS011;5969;50.780;7.726;2023-03-30T09:30:37;6.25;;;1.83;;
11823;SDS011;5969;50.780;7.726;2023-03-30T09:33:12;5.15;;;1.92;;
11823;SDS011;5969;50.780;7.726;2023-03-30T09:35:49;5.22;;;1.80;;
11823;SDS011;5969;50.780;7.726;2023-03-30T09:38:23;6.35;;;1.65;;
11823;SDS011;5969;50.780;7.726;2023-03-30T09:40:56;4.13;;;1.83;;
11823;SDS011;5969;50.780;7.726;2023-03-30T09:43:32;5.05;;;2.28;;
11823;SDS011;5969;50.780;7.726;2023-03-30T09:46:00;4.03;;;2.00;;
11823;SDS011;5969;50.780;7.726;2023-03-30T09:48:36;4.15;;;1.90;;
11823;SDS011;5969;50.780;7.726;2023-03-30T09:51:12;4.68;;;2.17;;
11823;SDS011;5969;50.780;7.726;2023-03-30T09:53:44;4.28;;;1.80;;
11823;SDS011;5969;50.780;7.726;2023-03-30T09:56:19;7.60;;;2.03;;
11823;SDS011;5969;50.780;7.726;2023-03-30T09:58:51;6.82;;;2.17;;
11823;SDS011;5969;50.780;7.726;2023-03-30T10:01:18;6.80;;;2.45;;
11823;SDS011;5969;50.780;7.726;2023-03-30T10:06:31;6.43;;;2.22;;
11823;SDS011;5969;50.780;7.726;2023-03-30T10:09:03;4.63;;;2.10;;
11823;SDS011;5969;50.780;7.726;2023-03-30T10:11:37;6.07;;;2.20;;
11823;SDS011;5969;50.780;7.726;2023-03-30T10:14:10;4.03;;;1.75;;
11823;SDS011;5969;50.780;7.726;2023-03-30T10:17:01;7.80;;;1.90;;
11823;SDS011;5969;50.780;7.726;2023-03-30T10:19:31;3.97;;;1.70;;
11823;SDS011;5969;50.780;7.726;2023-03-30T10:21:59;3.55;;;1.90;;
11823;SDS011;5969;50.780;7.726;2023-03-30T10:24:28;4.88;;;2.22;;
11823;SDS011;5969;50.780;7.726;2023-03-30T10:27:01;4.10;;;2.00;;
11823;SDS011;5969;50.780;7.726;2023-03-30T10:29:33;4.07;;;1.90;;
11823;SDS011;5969;50.780;7.726;2023-03-30T10:32:01;4.88;;;2.53;;
11823;SDS011;5969;50.780;7.726;2023-03-30T10:34:35;5.07;;;2.05;;
11823;SDS011;5969;50.780;7.726;2023-03-30T10:37:05;4.03;;;1.60;;
11823;SDS011;5969;50.780;7.726;2023-03-30T10:39:37;4.93;;;1.13;;
11823;SDS011;5969;50.780;7.726;2023-03-30T10:42:12;1.30;;;0.82;;
11823;SDS011;5969;50.780;7.726;2023-03-30T10:44:44;2.88;;;0.63;;
11823;SDS011;5969;50.780;7.726;2023-03-30T10:50:06;1.52;;;1.00;;
11823;SDS011;5969;50.780;7.726;2023-03-30T10:52:44;2.72;;;1.00;;
11823;SDS011;5969;50.780;7.726;2023-03-30T10:55:22;2.05;;;1.00;;
11823;SDS011;5969;50.780;7.726;2023-03-30T10:57:57;3.08;;;1.15;;
11823;SDS011;5969;50.780;7.726;2023-03-30T11:00:36;1.45;;;0.80;;
11823;SDS011;5969;50.780;7.726;2023-03-30T11:03:15;1.88;;;1.05;;
11823;SDS011;5969;50.780;7.726;2023-03-30T11:05:48;4.32;;;1.08;;
11823;SDS011;5969;50.780;7.726;2023-03-30T11:08:23;2.70;;;1.10;;
11823;SDS011;5969;50.780;7.726;2023-03-30T11:10:54;2.50;;;0.98;;
11823;SDS011;5969;50.780;7.726;2023-03-30T11:13:26;2.92;;;1.00;;
11823;SDS011;5969;50.780;7.726;2023-03-30T11:15:59;2.75;;;1.13;;
11823;SDS011;5969;50.780;7.726;2023-03-30T11:18:31;2.15;;;1.10;;
11823;SDS011;5969;50.780;7.726;2023-03-30T11:21:03;3.75;;;1.23;;
11823;SDS011;5969;50.780;7.726;2023-03-30T11:23:36;4.43;;;1.02;;
11823;SDS011;5969;50.780;7.726;2023-03-30T11:26:09;2.22;;;0.95;;
11823;SDS011;5969;50.780;7.726;2023-03-30T11:28:56;2.70;;;1.10;;
11823;SDS011;5969;50.780;7.726;2023-03-30T11:31:34;2.40;;;1.00;;
11823;SDS011;5969;50.780;7.726;2023-03-30T11:34:12;1.75;;;1.05;;
11823;SDS011;5969;50.780;7.726;2023-03-30T11:36:47;1.70;;;1.00;;
11823;SDS011;5969;50.780;7.726;2023-03-30T11:39:23;2.70;;;0.80;;
11823;SDS011;5969;50.780;7.726;2023-03-30T11:41:56;4.22;;;1.27;;
11823;SDS011;5969;50.780;7.726;2023-03-30T11:44:31;2.70;;;1.10;;
11823;SDS011;5969;50.780;7.726;2023-03-30T11:47:00;2.55;;;1.20;;
11823;SDS011;5969;50.780;7.726;2023-03-30T11:49:49;1.85;;;0.95;;
11823;SDS011;5969;50.780;7.726;2023-03-30T11:52:28;2.30;;;1.00;;
11823;SDS011;5969;50.780;7.726;2023-03-30T11:55:19;2.40;;;0.93;;
11823;SDS011;5969;50.780;7.726;2023-03-30T11:57:59;1.10;;;0.60;;
11823;SDS011;5969;50.780;7.726;2023-03-30T12:00:42;2.80;;;1.02;;
11823;SDS011;5969;50.780;7.726;2023-03-30T12:03:25;1.50;;;0.80;;
11823;SDS011;5969;50.780;7.726;2023-03-30T12:06:04;1.15;;;0.82;;
11823;SDS011;5969;50.780;7.726;2023-03-30T12:08:50;1.30;;;1.10;;
11823;SDS011;5969;50.780;7.726;2023-03-30T12:11:38;2.97;;;1.02;;
11823;SDS011;5969;50.780;7.726;2023-03-30T12:14:26;2.22;;;1.00;;
11823;SDS011;5969;50.780;7.726;2023-03-30T12:17:05;1.67;;;0.98;;
11823;SDS011;5969;50.780;7.726;2023-03-30T12:19:39;3.45;;;1.40;;
11823;SDS011;5969;50.780;7.726;2023-03-30T12:22:18;2.55;;;1.15;;
11823;SDS011;5969;50.780;7.726;2023-03-30T12:25:16;1.40;;;0.80;;
11823;SDS011;5969;50.780;7.726;2023-03-30T12:27:58;3.63;;;0.90;;
11823;SDS011;5969;50.780;7.726;2023-03-30T12:30:39;2.88;;;1.20;;
11823;SDS011;5969;50.780;7.726;2023-03-30T12:33:17;2.17;;;1.20;;
11823;SDS011;5969;50.780;7.726;2023-03-30T12:36:00;1.42;;;0.88;;
11823;SDS011;5969;50.780;7.726;2023-03-30T12:38:36;1.90;;;0.95;;
11823;SDS011;5969;50.780;7.726;2023-03-30T12:41:08;2.35;;;0.90;;
11823;SDS011;5969;50.780;7.726;2023-03-30T12:43:54;3.05;;;0.90;;
11823;SDS011;5969;50.780;7.726;2023-03-30T12:46:58;0.93;;;0.70;;
11823;SDS011;5969;50.780;7.726;2023-03-30T12:49:41;1.42;;;0.52;;
11823;SDS011;5969;50.780;7.726;2023-03-30T12:52:26;1.75;;;0.80;;
11823;SDS011;5969;50.780;7.726;2023-03-30T12:55:10;1.83;;;0.80;;
11823;SDS011;5969;50.780;7.726;2023-03-30T12:58:00;1.38;;;0.73;;
11823;SDS011;5969;50.780;7.726;2023-03-30T13:04:12;3.70;;;0.90;;
11823;SDS011;5969;50.780;7.726;2023-03-30T13:06:47;1.35;;;0.60;;
11823;SDS011;5969;50.780;7.726;2023-03-30T13:09:32;1.48;;;0.75;;
11823;SDS011;5969;50.780;7.726;2023-03-30T13:12:20;1.98;;;1.00;;
11823;SDS011;5969;50.780;7.726;2023-03-30T13:14:56;2.03;;;0.80;;
11823;SDS011;5969;50.780;7.726;2023-03-30T13:17:25;1.70;;;0.80;;
11823;SDS011;5969;50.780;7.726;2023-03-30T13:20:03;1.52;;;0.63;;
11823;SDS011;5969;50.780;7.726;2023-03-30T13:22:50;3.40;;;1.00;;
11823;SDS011;5969;50.780;7.726;2023-03-30T13:25:27;2.13;;;1.00;;
11823;SDS011;5969;50.780;7.726;2023-03-30T13:31:03;1.55;;;0.90;;
11823;SDS011;5969;50.780;7.726;2023-03-30T13:33:44;3.15;;;0.98;;
11823;SDS011;5969;50.780;7.726;2023-03-30T13:36:20;4.00;;;1.30;;
11823;SDS011;5969;50.780;7.726;2023-03-30T13:39:03;3.17;;;0.90;;
11823;SDS011;5969;50.780;7.726;2023-03-30T13:41:44;2.42;;;1.00;;
11823;SDS011;5969;50.780;7.726;2023-03-30T13:44:27;2.90;;;0.98;;
11823;SDS011;5969;50.780;7.726;2023-03-30T13:47:20;3.85;;;1.27;;
11823;SDS011;5969;50.780;7.726;2023-03-30T13:49:57;1.98;;;1.10;;
11823;SDS011;5969;50.780;7.726;2023-03-30T13:52:31;2.80;;;1.10;;
11823;SDS011;5969;50.780;7.726;2023-03-30T13:55:02;2.95;;;1.30;;
11823;SDS011;5969;50.780;7.726;2023-03-30T13:57:35;3.55;;;1.30;;
11823;SDS011;5969;50.780;7.726;2023-03-30T14:00:07;3.10;;;1.48;;
11823;SDS011;5969;50.780;7.726;2023-03-30T14:02:49;3.13;;;1.50;;
11823;SDS011;5969;50.780;7.726;2023-03-30T14:05:17;2.53;;;1.02;;
11823;SDS011;5969;50.780;7.726;2023-03-30T14:07:47;4.60;;;1.63;;
11823;SDS011;5969;50.780;7.726;2023-03-30T14:10:16;5.20;;;1.23;;
11823;SDS011;5969;50.780;7.726;2023-03-30T14:12:44;5.10;;;1.30;;
11823;SDS011;5969;50.780;7.726;2023-03-30T14:15:18;3.28;;;1.27;;
11823;SDS011;5969;50.780;7.726;2023-03-30T14:17:50;3.30;;;1.15;;
11823;SDS011;5969;50.780;7.726;2023-03-30T14:20:22;2.83;;;1.17;;
11823;SDS011;5969;50.780;7.726;2023-03-30T14:22:56;2.30;;;1.10;;
11823;SDS011;5969;50.780;7.726;2023-03-30T14:25:26;1.73;;;1.10;;
11823;SDS011;5969;50.780;7.726;2023-03-30T14:27:55;2.90;;;1.10;;
11823;SDS011;5969;50.780;7.726;2023-03-30T14:30:24;2.35;;;1.00;;
11823;SDS011;5969;50.780;7.726;2023-03-30T14:33:06;4.15;;;1.83;;
11823;SDS011;5969;50.780;7.726;2023-03-30T14:35:36;4.82;;;1.80;;
11823;SDS011;5969;50.780;7.726;2023-03-30T14:38:12;6.35;;;2.10;;
11823;SDS011;5969;50.780;7.726;2023-03-30T14:40:42;2.83;;;1.45;;
11823;SDS011;5969;50.780;7.726;2023-03-30T14:43:12;3.53;;;1.50;;
11823;SDS011;5969;50.780;7.726;2023-03-30T14:45:41;5.88;;;1.60;;
11823;SDS011;5969;50.780;7.726;2023-03-30T14:48:12;5.13;;;1.77;;
11823;SDS011;5969;50.780;7.726;2023-03-30T14:50:47;4.20;;;1.50;;
11823;SDS011;5969;50.780;7.726;2023-03-30T14:53:14;2.78;;;1.42;;
11823;SDS011;5969;50.780;7.726;2023-03-30T14:55:45;5.85;;;1.50;;
11823;SDS011;5969;50.780;7.726;2023-03-30T14:58:13;4.75;;;1.52;;
11823;SDS011;5969;50.780;7.726;2023-03-30T15:00:41;3.60;;;1.40;;
11823;SDS011;5969;50.780;7.726;2023-03-30T15:03:09;3.63;;;1.40;;
11823;SDS011;5969;50.780;7.726;2023-03-30T15:05:38;2.95;;;1.50;;
11823;SDS011;5969;50.780;7.726;2023-03-30T15:08:12;5.70;;;1.73;;
11823;SDS011;5969;50.780;7.726;2023-03-30T15:10:44;5.57;;;1.58;;
11823;SDS011;5969;50.780;7.726;2023-03-30T15:13:17;6.35;;;1.63;;
11823;SDS011;5969;50.780;7.726;2023-03-30T15:15:49;5.40;;;1.40;;
11823;SDS011;5969;50.780;7.726;2023-03-30T15:18:18;3.65;;;1.40;;
11823;SDS011;5969;50.780;7.726;2023-03-30T15:20:49;4.97;;;1.42;;
11823;SDS011;5969;50.780;7.726;2023-03-30T15:23:18;3.47;;;1.42;;
11823;SDS011;5969;50.780;7.726;2023-03-30T15:25:46;3.05;;;1.50;;
11823;SDS011;5969;50.780;7.726;2023-03-30T15:28:14;3.47;;;1.73;;
11823;SDS011;5969;50.780;7.726;2023-03-30T15:30:45;4.65;;;1.70;;
11823;SDS011;5969;50.780;7.726;2023-03-30T15:33:24;4.80;;;1.80;;
11823;SDS011;5969;50.780;7.726;2023-03-30T15:36:02;4.70;;;1.70;;
11823;SDS011;5969;50.780;7.726;2023-03-30T15:38:34;5.20;;;1.80;;
11823;SDS011;5969;50.780;7.726;2023-03-30T15:41:15;3.92;;;1.38;;
11823;SDS011;5969;50.780;7.726;2023-03-30T15:43:56;3.65;;;1.75;;
11823;SDS011;5969;50.780;7.726;2023-03-30T15:46:24;4.55;;;1.60;;
11823;SDS011;5969;50.780;7.726;2023-03-30T15:48:53;5.28;;;1.73;;
11823;SDS011;5969;50.780;7.726;2023-03-30T15:51:27;6.10;;;1.83;;
11823;SDS011;5969;50.780;7.726;2023-03-30T15:57:49;4.50;;;1.20;;
11823;SDS011;5969;50.780;7.726;2023-03-30T16:00:21;4.78;;;1.40;;
11823;SDS011;5969;50.780;7.726;2023-03-30T16:03:38;4.40;;;1.25;;
11823;SDS011;5969;50.780;7.726;2023-03-30T16:09:36;1.65;;;0.90;;
11823;SDS011;5969;50.780;7.726;2023-03-30T16:12:24;2.05;;;1.02;;